Time;durP1;ratioP1;P1;durP2;ratioP2;P2;SDS_P1;SDS_P2;PMS_P1;PMS_P2;Temp;Humidity;BMP_temperature;BMP_pressure;BME280_temperature;BME280_humidity;BME280_pressure;Samples;Min_cycle;Max_cycle;Signal;HPM_P1;HPM_P2
2023/01/12 00:01:38;;;;;;;59.55;29.30;;;5.20;99.90;;;;;;5055166;28;20021;-85
2023/01/12 00:04:04;;;;;;;59.97;27.45;;;5.00;99.90;;;;;;5054991;28;20530;-85
2023/01/12 00:06:33;;;;;;;62.95;28.00;;;5.00;99.90;;;;;;5055151;28;20025;-85
2023/01/12 00:09:01;;;;;;;75.82;27.25;;;5.00;99.90;;;;;;5055277;28;20057;-85
2023/01/12 00:11:27;;;;;;;121.57;27.35;;;4.70;99.90;;;;;;5055052;28;20025;-85
2023/01/12 00:13:53;;;;;;;25.63;19.65;;;4.70;99.90;;;;;;5055054;28;20043;-85
2023/01/12 00:16:34;;;;;;;25.42;18.23;;;4.90;99.90;;;;;;5055180;28;20025;-85
2023/01/12 00:19:01;;;;;;;23.75;19.02;;;4.50;99.90;;;;;;5054399;28;20037;-85
2023/01/12 00:21:26;;;;;;;23.88;17.92;;;5.00;99.90;;;;;;5055089;28;20107;-85
2023/01/12 00:23:52;;;;;;;20.58;16.80;;;4.70;99.90;;;;;;5054565;28;20123;-85
2023/01/12 00:26:18;;;;;;;22.90;18.23;;;4.90;99.90;;;;;;5054969;28;20032;-85
2023/01/12 00:28:43;;;;;;;22.67;17.27;;;4.80;99.90;;;;;;5036820;28;20029;-85
2023/01/12 00:31:10;;;;;;;25.05;18.65;;;4.80;99.90;;;;;;5054845;28;20029;-85
2023/01/12 00:33:37;;;;;;;26.23;19.55;;;5.20;99.90;;;;;;5054164;28;20037;-84
2023/01/12 00:36:04;;;;;;;24.65;18.88;;;5.30;99.90;;;;;;5054941;28;20497;-85
2023/01/12 00:38:31;;;;;;;24.77;18.40;;;5.00;99.90;;;;;;5054450;28;20081;-85
2023/01/12 00:41:02;;;;;;;25.02;18.60;;;5.40;99.90;;;;;;5054472;28;20488;-85
2023/01/12 00:46:12;;;;;;;23.25;18.10;;;4.90;99.90;;;;;;5054315;28;20032;-85
2023/01/12 00:48:38;;;;;;;24.77;17.95;;;5.10;99.90;;;;;;5053444;28;20029;-85
2023/01/12 00:51:04;;;;;;;26.02;18.60;;;5.00;99.90;;;;;;5054372;28;20393;-85
2023/01/12 00:53:30;;;;;;;26.35;18.67;;;4.70;99.90;;;;;;5054023;28;20033;-87
2023/01/12 00:56:02;;;;;;;26.65;19.92;;;4.80;99.90;;;;;;5054273;28;20021;-84
2023/01/12 00:58:28;;;;;;;27.83;20.95;;;4.70;99.90;;;;;;5054100;28;20037;-85
2023/01/12 01:00:55;;;;;;;32.92;21.95;;;5.00;99.90;;;;;;5054177;28;20079;-85
2023/01/12 01:03:20;;;;;;;31.65;20.65;;;4.60;99.90;;;;;;5053772;28;20025;-85
2023/01/12 01:05:46;;;;;;;29.27;18.80;;;4.70;99.90;;;;;;5053885;28;20075;-84
2023/01/12 01:08:11;;;;;;;27.48;19.85;;;4.50;99.90;;;;;;5053989;28;20544;-84
2023/01/12 01:10:37;;;;;;;25.90;18.48;;;4.70;99.90;;;;;;5054351;28;20021;-85
2023/01/12 01:13:03;;;;;;;28.35;20.13;;;4.40;99.90;;;;;;5053736;28;20040;-85
2023/01/12 01:15:29;;;;;;;29.25;20.42;;;4.40;99.90;;;;;;5053795;28;20029;-85
2023/01/12 01:17:55;;;;;;;20.33;15.75;;;4.50;99.90;;;;;;5035948;28;20032;-85
2023/01/12 01:20:20;;;;;;;27.00;17.88;;;4.70;99.90;;;;;;5053646;28;20037;-85
2023/01/12 01:22:46;;;;;;;27.13;19.30;;;5.00;99.90;;;;;;5053591;28;20025;-85
2023/01/12 01:25:12;;;;;;;32.38;19.73;;;4.60;99.90;;;;;;5053465;28;20052;-85
2023/01/12 01:27:37;;;;;;;27.98;19.60;;;4.80;99.90;;;;;;5054089;28;20025;-86
2023/01/12 01:30:04;;;;;;;29.98;20.17;;;4.40;99.90;;;;;;5053485;28;20042;-85
2023/01/12 01:32:29;;;;;;;41.88;19.27;;;4.40;99.90;;;;;;5053173;28;20068;-85
2023/01/12 01:34:55;;;;;;;54.67;18.35;;;4.10;99.90;;;;;;5053395;28;20052;-85
2023/01/12 01:37:20;;;;;;;40.25;17.88;;;4.20;99.90;;;;;;5053749;28;20036;-85
2023/01/12 01:39:46;;;;;;;54.75;19.35;;;4.60;99.90;;;;;;5053388;28;20554;-85
2023/01/12 01:42:26;;;;;;;54.42;18.13;;;4.40;99.90;;;;;;5053406;28;20473;-85
2023/01/12 01:44:54;;;;;;;37.95;16.75;;;4.30;99.90;;;;;;5053245;28;20111;-85
2023/01/12 01:47:38;;;;;;;34.95;17.15;;;4.80;99.90;;;;;;5052950;28;20021;-84
2023/01/12 01:50:13;;;;;;;32.25;18.20;;;4.60;99.90;;;;;;5053108;28;20032;-85
2023/01/12 01:52:43;;;;;;;34.60;18.08;;;4.60;99.90;;;;;;5053276;28;20087;-85
2023/01/12 01:55:18;;;;;;;35.85;18.33;;;4.80;99.90;;;;;;5053151;28;20021;-85
2023/01/12 01:57:53;;;;;;;23.98;17.52;;;4.70;99.90;;;;;;5053024;28;20025;-85
2023/01/12 02:00:19;;;;;;;23.10;16.38;;;4.60;99.90;;;;;;5052966;28;20032;-84
2023/01/12 02:02:46;;;;;;;24.65;17.63;;;4.60;99.90;;;;;;5052792;28;20499;-84
2023/01/12 02:05:18;;;;;;;28.60;19.17;;;4.60;99.90;;;;;;5052880;28;20377;-85
2023/01/12 02:07:45;;;;;;;25.67;17.88;;;4.80;99.90;;;;;;5052822;28;20025;-85
2023/01/12 02:10:11;;;;;;;23.85;16.85;;;4.60;99.90;;;;;;5053198;28;20036;-84
2023/01/12 02:18:30;;;;;;;20.55;15.25;;;4.60;99.90;;;;;;5053217;28;20063;-85
2023/01/12 02:21:20;;;;;;;23.98;16.13;;;4.70;99.90;;;;;;5052926;28;20017;-85
2023/01/12 02:23:55;;;;;;;24.00;16.77;;;4.60;99.90;;;;;;5052421;28;20045;-85
2023/01/12 02:26:44;;;;;;;18.83;14.52;;;4.70;99.90;;;;;;5052573;28;20075;-85
2023/01/12 02:29:50;;;;;;;25.48;14.93;;;4.40;99.90;;;;;;5052175;28;20108;-85
2023/01/12 02:32:35;;;;;;;18.13;13.93;;;4.40;99.90;;;;;;5052229;28;20039;-85
2023/01/12 02:35:21;;;;;;;22.17;16.23;;;4.60;99.90;;;;;;5052308;28;20096;-85
2023/01/12 02:38:08;;;;;;;25.75;14.32;;;4.70;99.90;;;;;;5052445;28;20028;-84
2023/01/12 02:41:00;;;;;;;23.00;15.10;;;5.10;99.90;;;;;;5052325;28;20029;-85
2023/01/12 02:43:30;;;;;;;23.85;15.88;;;5.00;99.90;;;;;;5052371;28;20033;-84
2023/01/12 02:46:21;;;;;;;24.55;15.35;;;5.30;99.90;;;;;;5052341;28;20020;-85
2023/01/12 02:49:11;;;;;;;22.20;15.63;;;5.00;99.90;;;;;;5052445;28;20036;-85
2023/01/12 02:51:43;;;;;;;21.15;14.93;;;5.30;99.90;;;;;;5052131;28;20021;-85
2023/01/12 02:54:14;;;;;;;21.35;14.50;;;5.30;99.90;;;;;;5052357;28;20147;-85
2023/01/12 02:56:54;;;;;;;21.98;15.73;;;5.20;99.90;;;;;;5052016;28;20017;-85
2023/01/12 02:59:26;;;;;;;26.58;18.90;;;4.80;99.90;;;;;;5051885;28;20029;-85
2023/01/12 03:01:58;;;;;;;30.65;19.95;;;4.80;99.90;;;;;;5050749;28;20025;-85
2023/01/12 03:04:26;;;;;;;26.50;17.40;;;5.10;99.90;;;;;;5052433;28;20025;-85
2023/01/12 03:06:55;;;;;;;21.90;16.35;;;4.70;99.90;;;;;;5052085;28;20520;-85
2023/01/12 03:09:30;;;;;;;22.67;15.18;;;4.90;99.90;;;;;;5051824;28;20122;-85
2023/01/12 03:12:05;;;;;;;27.58;18.80;;;4.60;99.90;;;;;;5052913;28;20029;-85
2023/01/12 03:14:34;;;;;;;23.08;16.15;;;5.00;99.90;;;;;;5056067;28;20032;-85
2023/01/12 03:17:05;;;;;;;20.65;15.65;;;4.90;99.90;;;;;;5056368;28;20041;-85
2023/01/12 03:19:32;;;;;;;23.50;15.50;;;4.90;99.90;;;;;;5056029;28;20120;-85
2023/01/12 03:21:59;;;;;;;24.45;17.35;;;5.10;99.90;;;;;;5056030;28;20036;-85
2023/01/12 03:24:36;;;;;;;21.95;15.73;;;5.00;99.90;;;;;;5055769;28;20129;-85
2023/01/12 03:27:09;;;;;;;26.02;17.02;;;5.10;99.90;;;;;;5056075;28;20049;-85
2023/01/12 03:29:40;;;;;;;23.45;15.38;;;5.10;99.90;;;;;;5055965;28;20103;-83
2023/01/12 03:32:06;;;;;;;21.80;15.05;;;4.90;99.90;;;;;;5055691;28;20029;-84
2023/01/12 03:34:34;;;;;;;21.80;14.50;;;5.00;99.90;;;;;;5055804;28;20021;-85
2023/01/12 03:37:27;;;;;;;20.17;14.88;;;5.10;99.90;;;;;;5055673;28;20029;-85
2023/01/12 03:40:15;;;;;;;22.65;14.85;;;5.20;99.90;;;;;;5055810;28;20021;-85
2023/01/12 03:42:45;;;;;;;20.02;14.43;;;5.20;99.90;;;;;;5055345;28;20029;-85
2023/01/12 03:45:34;;;;;;;24.63;16.13;;;5.50;99.90;;;;;;5055615;28;20082;-86
2023/01/12 03:48:18;;;;;;;27.13;17.02;;;5.10;99.90;;;;;;5055515;28;20024;-85
2023/01/12 03:50:46;;;;;;;24.27;16.02;;;5.00;99.90;;;;;;5055919;28;20112;-85
2023/01/12 03:53:17;;;;;;;25.10;15.20;;;5.40;99.90;;;;;;5055282;28;20497;-83
2023/01/12 03:55:45;;;;;;;26.13;15.85;;;5.10;99.90;;;;;;5055160;28;20098;-82
2023/01/12 03:58:11;;;;;;;23.02;14.43;;;5.20;99.90;;;;;;5055253;28;20025;-84
2023/01/12 04:00:37;;;;;;;22.80;13.70;;;5.30;99.90;;;;;;5054966;28;20028;-85
2023/01/12 04:03:11;;;;;;;22.02;13.73;;;4.80;99.90;;;;;;5055507;28;20049;-85
2023/01/12 04:05:38;;;;;;;19.55;13.50;;;4.60;99.90;;;;;;5055378;28;20027;-85
2023/01/12 04:08:04;;;;;;;19.67;12.68;;;4.80;99.90;;;;;;5055230;28;20052;-85
2023/01/12 04:10:30;;;;;;;17.90;12.13;;;4.60;99.90;;;;;;5054782;28;20084;-85
2023/01/12 04:12:56;;;;;;;20.20;12.55;;;4.60;99.90;;;;;;5055241;28;20116;-84
2023/01/12 04:15:21;;;;;;;17.95;12.10;;;4.60;99.90;;;;;;5054657;28;20104;-85
2023/01/12 04:17:47;;;;;;;16.70;11.98;;;4.60;99.90;;;;;;5055105;28;20134;-85
2023/01/12 04:20:13;;;;;;;13.88;10.88;;;4.80;99.90;;;;;;5054986;28;20456;-85
2023/01/12 04:22:42;;;;;;;14.27;10.38;;;4.80;99.90;;;;;;5054717;28;20035;-85
2023/01/12 04:25:11;;;;;;;16.77;11.13;;;5.10;99.90;;;;;;5054460;28;20056;-86
2023/01/12 04:27:44;;;;;;;20.33;9.95;;;4.70;99.90;;;;;;5054886;28;20021;-86
2023/01/12 04:30:10;;;;;;;15.60;9.80;;;5.10;99.90;;;;;;5054692;28;20078;-85
2023/01/12 04:32:36;;;;;;;15.90;9.30;;;4.50;99.90;;;;;;5054958;28;20036;-85
2023/01/12 04:35:02;;;;;;;15.45;8.90;;;4.70;99.90;;;;;;5054609;28;20052;-86
2023/01/12 04:37:31;;;;;;;16.60;9.25;;;4.60;99.90;;;;;;5054753;28;20025;-85
2023/01/12 04:39:57;;;;;;;15.93;8.77;;;4.90;99.90;;;;;;5054518;28;20035;-86
2023/01/12 04:45:07;;;;;;;15.45;9.05;;;4.90;99.90;;;;;;5054432;28;20636;-85
2023/01/12 04:47:32;;;;;;;17.35;9.85;;;4.40;99.90;;;;;;5054255;28;20035;-85
2023/01/12 04:49:58;;;;;;;16.52;8.85;;;4.50;99.90;;;;;;5054403;28;20477;-85
2023/01/12 04:52:24;;;;;;;14.98;8.68;;;4.50;99.90;;;;;;5054527;28;20099;-85
2023/01/12 04:54:49;;;;;;;16.33;8.98;;;4.30;99.90;;;;;;5053734;28;20029;-85
2023/01/12 04:57:15;;;;;;;14.98;8.40;;;4.50;99.90;;;;;;5054279;28;20025;-85
2023/01/12 04:59:40;;;;;;;17.67;8.63;;;4.30;99.90;;;;;;5054366;28;20029;-85
2023/01/12 05:02:06;;;;;;;17.73;8.55;;;4.40;99.90;;;;;;5054007;28;20084;-85
2023/01/12 05:04:32;;;;;;;13.43;8.20;;;4.40;99.90;;;;;;5054049;28;20026;-85
2023/01/12 05:06:57;;;;;;;12.35;7.57;;;4.40;99.90;;;;;;5053985;28;20025;-86
2023/01/12 05:12:15;;;;;;;12.98;6.95;;;4.60;99.90;;;;;;4972743;28;20039;-86
2023/01/12 05:14:40;;;;;;;13.43;7.57;;;4.60;99.90;;;;;;4973240;28;20081;-86
2023/01/12 05:17:06;;;;;;;14.93;7.45;;;4.70;99.90;;;;;;4972883;28;20047;-86
2023/01/12 05:19:32;;;;;;;10.18;6.63;;;4.90;99.90;;;;;;4972956;28;20542;-86
2023/01/12 05:21:58;;;;;;;13.93;6.50;;;5.30;99.90;;;;;;4972655;28;20027;-86
2023/01/12 05:24:23;;;;;;;17.75;7.30;;;5.10;99.90;;;;;;4972271;28;20054;-86
2023/01/12 05:26:49;;;;;;;13.50;6.68;;;5.00;99.90;;;;;;4972747;28;20042;-85
2023/01/12 05:29:15;;;;;;;25.98;13.73;;;5.30;99.90;;;;;;4972830;28;20495;-86
2023/01/12 05:31:41;;;;;;;24.98;15.52;;;5.30;99.90;;;;;;4972751;28;20027;-86
2023/01/12 05:34:07;;;;;;;23.52;15.13;;;5.10;99.90;;;;;;4972585;28;20097;-85
2023/01/12 05:36:32;;;;;;;25.60;16.58;;;5.10;99.90;;;;;;4972320;28;20034;-86
2023/01/12 05:38:58;;;;;;;34.58;21.60;;;5.10;99.90;;;;;;4972170;28;20042;-86
2023/01/12 05:41:24;;;;;;;26.25;16.38;;;5.20;99.90;;;;;;4972236;28;20110;-85
2023/01/12 05:43:50;;;;;;;19.90;14.20;;;5.10;99.90;;;;;;4972922;28;20443;-85
2023/01/12 05:46:29;;;;;;;18.42;12.43;;;5.40;99.90;;;;;;4972368;28;20047;-86
2023/01/12 05:48:56;;;;;;;18.55;11.60;;;5.10;99.90;;;;;;5008236;28;20082;-86
2023/01/12 05:51:23;;;;;;;14.38;10.38;;;5.10;99.90;;;;;;5053218;28;20104;-85
2023/01/12 05:53:49;;;;;;;16.38;10.57;;;5.30;99.90;;;;;;5052654;28;20159;-85
2023/01/12 05:56:26;;;;;;;12.75;8.15;;;5.30;99.90;;;;;;5052946;28;20108;-86
2023/01/12 05:58:57;;;;;;;14.52;6.65;;;5.30;99.90;;;;;;5053702;28;20028;-86
2023/01/12 06:01:23;;;;;;;12.13;6.07;;;5.20;99.90;;;;;;5035415;28;20025;-86
2023/01/12 06:03:56;;;;;;;10.13;6.25;;;5.20;99.90;;;;;;5052481;28;20033;-86
2023/01/12 06:06:29;;;;;;;10.43;6.07;;;5.20;99.90;;;;;;5052960;28;20025;-86
2023/01/12 06:08:55;;;;;;;10.77;6.05;;;5.50;99.90;;;;;;5052951;28;20053;-86
2023/01/12 06:14:05;;;;;;;14.70;6.78;;;5.10;99.90;;;;;;5052589;28;20086;-86
2023/01/12 06:16:31;;;;;;;16.08;8.20;;;5.10;99.90;;;;;;5052639;28;20043;-86
2023/01/12 06:18:57;;;;;;;10.43;6.75;;;5.30;99.90;;;;;;5052637;28;20025;-86
2023/01/12 06:21:24;;;;;;;14.55;6.95;;;5.10;99.90;;;;;;5052296;28;20025;-86
2023/01/12 06:23:49;;;;;;;10.02;6.50;;;5.10;99.90;;;;;;5052492;28;20052;-86
2023/01/12 06:26:15;;;;;;;15.20;7.00;;;5.20;99.90;;;;;;5052517;28;20032;-85
2023/01/12 06:28:42;;;;;;;17.13;8.65;;;5.40;99.90;;;;;;5052826;28;20028;-86
2023/01/12 06:31:09;;;;;;;16.10;9.68;;;5.30;99.90;;;;;;5052571;28;20032;-85
2023/01/12 06:33:36;;;;;;;17.80;10.68;;;5.70;99.90;;;;;;5052202;28;20566;-85
2023/01/12 06:36:02;;;;;;;19.80;11.65;;;5.90;99.90;;;;;;5051098;28;20056;-85
2023/01/12 06:38:30;;;;;;;15.02;11.15;;;5.40;99.90;;;;;;5052213;28;20036;-85
2023/01/12 06:41:01;;;;;;;16.10;11.05;;;5.20;99.90;;;;;;5052061;28;20112;-86
2023/01/12 06:43:26;;;;;;;16.42;11.77;;;5.50;99.90;;;;;;5052173;28;20374;-86
2023/01/12 06:45:53;;;;;;;19.20;12.13;;;5.10;99.90;;;;;;5051899;28;20048;-86
2023/01/12 06:48:24;;;;;;;18.20;12.70;;;5.30;99.90;;;;;;5051949;28;20029;-86
2023/01/12 06:51:03;;;;;;;20.08;13.20;;;5.30;99.90;;;;;;5051726;28;20021;-85
2023/01/12 06:53:29;;;;;;;18.92;12.63;;;5.30;99.90;;;;;;5051881;28;20094;-85
2023/01/12 06:55:55;;;;;;;19.00;13.85;;;5.30;99.90;;;;;;5051952;28;20029;-86
2023/01/12 06:58:20;;;;;;;17.90;13.27;;;5.50;99.90;;;;;;5052164;28;20067;-86
2023/01/12 07:00:46;;;;;;;20.35;12.98;;;5.20;99.90;;;;;;5052006;28;20025;-85
2023/01/12 07:03:17;;;;;;;18.55;12.75;;;5.20;99.90;;;;;;5052566;28;20112;-86
2023/01/12 07:05:43;;;;;;;17.75;12.27;;;5.20;99.90;;;;;;5051542;28;20227;-86
2023/01/12 07:08:09;;;;;;;20.00;12.70;;;5.20;99.90;;;;;;5052447;28;20025;-85
2023/01/12 07:10:36;;;;;;;17.55;12.68;;;5.30;99.90;;;;;;5051939;28;20023;-86
2023/01/12 07:13:02;;;;;;;45.97;33.97;;;5.40;99.90;;;;;;5051863;28;20036;-86
2023/01/12 07:15:28;;;;;;;25.92;19.75;;;5.30;99.90;;;;;;5051653;28;20053;-86
2023/01/12 07:17:56;;;;;;;20.17;15.82;;;5.40;99.90;;;;;;5051990;28;20057;-85
2023/01/12 07:20:23;;;;;;;22.85;15.98;;;5.40;99.90;;;;;;5052035;28;20025;-86
2023/01/12 07:22:49;;;;;;;21.88;15.75;;;5.40;99.90;;;;;;5051661;28;20036;-86
2023/01/12 07:25:15;;;;;;;21.58;14.80;;;5.20;99.90;;;;;;5051636;28;20037;-86
2023/01/12 07:27:51;;;;;;;20.67;15.05;;;5.00;99.90;;;;;;5051785;28;20025;-86
2023/01/12 07:30:19;;;;;;;20.65;12.75;;;5.10;99.90;;;;;;5051856;28;20288;-86
2023/01/12 07:32:44;;;;;;;14.90;11.15;;;5.30;99.90;;;;;;5051574;28;20040;-86
2023/01/12 07:35:10;;;;;;;17.10;12.10;;;5.40;99.90;;;;;;5051592;28;20025;-86
2023/01/12 07:37:35;;;;;;;16.52;12.95;;;5.40;99.90;;;;;;5051526;28;20029;-86
2023/01/12 07:40:01;;;;;;;18.67;13.45;;;5.60;99.90;;;;;;5051665;28;20021;-86
2023/01/12 07:42:27;;;;;;;19.92;13.00;;;5.60;99.90;;;;;;5051641;28;20021;-86
2023/01/12 07:44:52;;;;;;;19.60;13.95;;;5.50;99.90;;;;;;5051977;28;20033;-86
2023/01/12 07:47:18;;;;;;;16.33;12.20;;;5.60;99.90;;;;;;5051152;28;20025;-85
2023/01/12 07:49:44;;;;;;;23.73;14.05;;;5.60;99.90;;;;;;5051682;28;20056;-86
2023/01/12 07:52:11;;;;;;;27.20;14.27;;;5.60;99.90;;;;;;5051238;28;20029;-86
2023/01/12 07:54:37;;;;;;;20.70;14.95;;;5.60;99.90;;;;;;5051380;28;20052;-86
2023/01/12 07:57:03;;;;;;;23.95;14.85;;;5.60;99.90;;;;;;5051446;28;20528;-86
2023/01/12 07:59:29;;;;;;;22.75;13.88;;;5.40;99.90;;;;;;5054641;28;20071;-86
2023/01/12 08:01:55;;;;;;;20.40;13.05;;;5.40;99.90;;;;;;5055681;28;20473;-86
2023/01/12 08:04:21;;;;;;;18.77;12.00;;;5.60;99.90;;;;;;5054818;28;20075;-86
2023/01/12 08:06:47;;;;;;;17.98;10.93;;;5.70;99.90;;;;;;5054893;28;20080;-86
2023/01/12 08:09:12;;;;;;;17.40;11.60;;;5.80;99.90;;;;;;5055595;28;20029;-85
2023/01/12 08:11:38;;;;;;;17.73;12.00;;;5.80;99.90;;;;;;5054845;28;20115;-86
2023/01/12 08:14:04;;;;;;;18.38;12.80;;;5.80;99.90;;;;;;5054884;28;20040;-86
2023/01/12 08:16:44;;;;;;;19.40;11.00;;;5.80;99.90;;;;;;5036901;28;20044;-86
2023/01/12 08:19:23;;;;;;;14.70;9.85;;;6.00;99.90;;;;;;5053978;28;20386;-85
2023/01/12 08:21:57;;;;;;;14.88;8.73;;;6.10;99.90;;;;;;5054703;28;20090;-85
2023/01/12 08:24:27;;;;;;;14.55;7.28;;;6.30;99.90;;;;;;5054622;28;20053;-85
2023/01/12 08:26:56;;;;;;;11.55;7.15;;;6.50;99.90;;;;;;5054819;28;20438;-86
2023/01/12 08:29:43;;;;;;;13.95;7.57;;;6.40;99.90;;;;;;5054785;28;20032;-86
2023/01/12 08:32:11;;;;;;;10.48;6.28;;;6.50;99.90;;;;;;5054224;28;20021;-86
2023/01/12 08:34:39;;;;;;;11.68;6.53;;;6.50;99.90;;;;;;5055063;28;20021;-86
2023/01/12 08:37:08;;;;;;;14.13;6.65;;;6.70;99.90;;;;;;5036535;28;20025;-86
2023/01/12 08:39:35;;;;;;;12.05;7.03;;;6.90;99.90;;;;;;5054551;28;20485;-86
2023/01/12 08:42:02;;;;;;;9.90;6.70;;;6.90;99.90;;;;;;5054859;28;20464;-86
2023/01/12 08:44:34;;;;;;;12.60;7.38;;;7.20;99.90;;;;;;5054464;28;20060;-86
2023/01/12 08:47:01;;;;;;;11.63;7.47;;;7.40;99.90;;;;;;5054074;28;20064;-86
2023/01/12 08:49:28;;;;;;;10.60;6.65;;;7.60;99.90;;;;;;5054372;28;20040;-85
2023/01/12 08:51:55;;;;;;;11.57;7.18;;;7.90;99.90;;;;;;5054243;28;20067;-86
2023/01/12 08:54:21;;;;;;;14.60;6.75;;;8.60;99.90;;;;;;5054169;28;20385;-86
2023/01/12 08:56:52;;;;;;;13.55;6.38;;;8.10;99.90;;;;;;5054224;28;20516;-86
2023/01/12 08:59:18;;;;;;;11.40;6.40;;;8.30;99.90;;;;;;5054410;28;20164;-86
2023/01/12 09:01:44;;;;;;;12.00;6.82;;;8.40;99.90;;;;;;5053830;28;20104;-86
2023/01/12 09:04:10;;;;;;;12.43;6.07;;;9.10;99.90;;;;;;5053972;28;20025;-86
2023/01/12 09:06:39;;;;;;;12.52;6.35;;;9.60;99.90;;;;;;5054143;28;20025;-86
2023/01/12 09:09:11;;;;;;;10.50;6.43;;;10.20;99.90;;;;;;5053471;28;20033;-86
2023/01/12 09:11:38;;;;;;;10.18;5.55;;;10.00;99.90;;;;;;5053957;28;20033;-86
2023/01/12 09:14:04;;;;;;;12.05;6.38;;;10.30;99.90;;;;;;5035870;28;20047;-86
2023/01/12 09:16:31;;;;;;;10.60;5.75;;;15.30;99.90;;;;;;5053501;28;20060;-86
2023/01/12 09:18:57;;;;;;;10.50;5.78;;;18.70;99.90;;;;;;5053713;28;20037;-86
2023/01/12 09:21:25;;;;;;;10.32;5.78;;;15.20;99.90;;;;;;5053702;28;20180;-86
2023/01/12 09:23:54;;;;;;;12.30;6.22;;;14.40;99.90;;;;;;5053391;28;20478;-86
2023/01/12 09:26:27;;;;;;;10.23;6.07;;;16.30;99.90;;;;;;5054009;28;20025;-86
2023/01/12 09:28:52;;;;;;;9.85;5.63;;;19.00;99.90;;;;;;5053571;28;20024;-86
2023/01/12 09:31:22;;;;;;;10.70;5.45;;;20.10;99.90;;;;;;5053350;28;20019;-86
2023/01/12 09:33:48;;;;;;;9.95;5.25;;;20.10;99.90;;;;;;5053408;28;20132;-86
2023/01/12 09:36:19;;;;;;;8.63;5.32;;;20.80;99.90;;;;;;5053390;28;20463;-86
2023/01/12 09:38:45;;;;;;;9.38;6.00;;;20.50;99.90;;;;;;5053838;28;20041;-86
2023/01/12 09:47:34;;;;;;;8.27;5.80;;;22.60;99.90;;;;;;5053625;28;20096;-86
2023/01/12 09:50:05;;;;;;;8.85;5.78;;;24.00;99.90;;;;;;4952838;29;20039;-86
2023/01/12 09:52:38;;;;;;;11.18;5.70;;;24.70;99.90;;;;;;4952879;28;20122;-87
2023/01/12 09:55:08;;;;;;;7.85;5.10;;;24.30;99.90;;;;;;4952747;28;20115;-86
2023/01/12 09:57:55;;;;;;;10.23;5.25;;;23.50;99.90;;;;;;4952928;29;20063;-86
2023/01/12 10:00:21;;;;;;;9.13;6.00;;;22.30;99.90;;;;;;4952476;29;20074;-86
2023/01/12 10:03:10;;;;;;;7.55;5.25;;;21.50;99.90;;;;;;4952648;29;20098;-86
2023/01/12 10:05:46;;;;;;;8.02;5.22;;;22.80;99.90;;;;;;4952719;29;20075;-86
2023/01/12 10:08:14;;;;;;;11.07;4.93;;;24.30;99.90;;;;;;4952641;29;20448;-86
2023/01/12 10:10:50;;;;;;;7.72;5.20;;;25.50;99.90;;;;;;4952578;29;20515;-86
2023/01/12 10:13:16;;;;;;;8.38;4.72;;;26.10;99.90;;;;;;4952636;29;20533;-86
2023/01/12 10:15:51;;;;;;;8.60;4.95;;;26.40;99.90;;;;;;4952471;28;20027;-86
2023/01/12 10:18:27;;;;;;;7.93;5.10;;;25.80;99.90;;;;;;4952546;29;20031;-86
2023/01/12 10:20:54;;;;;;;6.35;4.80;;;24.30;99.90;;;;;;4952265;28;20087;-86
2023/01/12 10:23:23;;;;;;;10.50;5.20;;;23.00;99.90;;;;;;4952746;29;20054;-86
2023/01/12 10:25:55;;;;;;;11.02;5.45;;;24.50;99.90;;;;;;4957690;28;20522;-86
2023/01/12 10:28:29;;;;;;;7.55;4.88;;;26.30;99.90;;;;;;5052156;28;20025;-87
2023/01/12 10:30:56;;;;;;;9.10;5.13;;;26.30;99.90;;;;;;5052413;28;20071;-86
2023/01/12 10:33:33;;;;;;;10.73;5.00;;;27.80;99.90;;;;;;5052316;28;20036;-86
2023/01/12 10:36:08;;;;;;;8.50;4.90;;;28.90;99.90;;;;;;5052371;28;20033;-86
2023/01/12 10:38:56;;;;;;;11.73;7.88;;;30.10;99.90;;;;;;5052450;28;20021;-86
2023/01/12 10:41:33;;;;;;;15.23;9.35;;;28.80;99.90;;;;;;5051904;28;20029;-86
2023/01/12 10:43:58;;;;;;;13.57;8.90;;;28.70;99.90;;;;;;5050883;28;20021;-87
2023/01/12 10:46:30;;;;;;;12.07;7.28;;;29.00;99.90;;;;;;5051423;28;20032;-87
2023/01/12 10:49:18;;;;;;;12.82;7.03;;;28.90;99.90;;;;;;5051949;28;20025;-87
2023/01/12 10:52:00;;;;;;;10.32;7.03;;;28.10;99.90;;;;;;5051352;28;20036;-87
2023/01/12 10:54:31;;;;;;;11.32;7.35;;;27.50;99.90;;;;;;5050508;28;20025;-87
2023/01/12 10:57:01;;;;;;;11.68;7.03;;;27.70;99.90;;;;;;5049245;28;20417;-87
2023/01/12 10:59:31;;;;;;;9.73;7.60;;;26.50;99.90;;;;;;5051082;28;20021;-87
2023/01/12 11:02:11;;;;;;;13.40;8.00;;;26.00;99.90;;;;;;5051776;28;20482;-87
2023/01/12 11:04:43;;;;;;;13.57;7.60;;;26.40;99.90;;;;;;5052183;28;20091;-87
2023/01/12 11:07:09;;;;;;;9.10;7.50;;;25.80;99.90;;;;;;5050960;28;20494;-87
2023/01/12 11:09:36;;;;;;;13.13;8.05;;;25.90;99.90;;;;;;5051734;28;20041;-87
2023/01/12 11:12:05;;;;;;;11.02;7.07;;;26.10;99.90;;;;;;5050113;28;20117;-87
2023/01/12 11:14:34;;;;;;;10.70;7.13;;;26.70;99.90;;;;;;5051241;28;20385;-87
2023/01/12 11:17:30;;;;;;;10.05;6.65;;;26.70;99.90;;;;;;5051364;28;20067;-87
2023/01/12 11:19:59;;;;;;;11.05;7.18;;;25.90;99.90;;;;;;5050792;28;20056;-87
2023/01/12 11:22:32;;;;;;;10.50;6.82;;;25.00;99.90;;;;;;5050996;28;20021;-87
2023/01/12 11:25:19;;;;;;;12.13;7.32;;;24.90;99.90;;;;;;5051630;28;20045;-87
2023/01/12 11:27:49;;;;;;;11.90;7.50;;;25.10;99.90;;;;;;5050962;28;20024;-87
2023/01/12 11:30:22;;;;;;;12.70;7.53;;;25.80;99.90;;;;;;5050509;28;20101;-87
2023/01/12 11:32:47;;;;;;;12.27;8.02;;;25.70;99.90;;;;;;5050912;28;20104;-87
2023/01/12 11:35:33;;;;;;;10.88;7.75;;;24.70;99.90;;;;;;5054807;28;20041;-87
2023/01/12 11:38:22;;;;;;;12.40;7.20;;;23.00;99.90;;;;;;5055046;28;20047;-87
2023/01/12 11:40:48;;;;;;;12.23;7.03;;;20.10;99.90;;;;;;5053373;28;20045;-87
2023/01/12 11:43:50;;;;;;;14.13;7.90;;;18.40;99.90;;;;;;5055377;28;20033;-87
2023/01/12 11:46:25;;;;;;;11.15;6.90;;;16.90;99.90;;;;;;5050575;28;20028;-87
2023/01/12 11:48:56;;;;;;;11.15;6.75;;;16.60;99.90;;;;;;5054222;28;20021;-87
2023/01/12 11:51:22;;;;;;;10.60;6.88;;;16.30;99.90;;;;;;5055318;28;20033;-87
2023/01/12 11:53:48;;;;;;;10.80;7.13;;;16.00;99.90;;;;;;5054807;28;20032;-87
2023/01/12 11:56:27;;;;;;;10.13;7.22;;;15.90;99.90;;;;;;5054172;28;20029;-87
2023/01/12 11:59:00;;;;;;;10.15;7.30;;;15.90;99.90;;;;;;5054628;28;20029;-87
2023/01/12 12:01:47;;;;;;;11.57;7.00;;;15.90;99.90;;;;;;5054932;28;20021;-86
2023/01/12 12:04:59;;;;;;;8.73;6.80;;;15.90;99.90;;;;;;5055182;28;20047;-87
2023/01/12 12:07:34;;;;;;;12.35;7.25;;;15.90;99.90;;;;;;4965152;28;20114;-87
2023/01/12 12:10:21;;;;;;;9.75;6.63;;;15.30;99.90;;;;;;4968177;28;20138;-87
2023/01/12 12:13:19;;;;;;;10.57;7.35;;;15.40;99.90;;;;;;4960815;28;20051;-86
2023/01/12 12:16:08;;;;;;;11.23;8.00;;;14.80;99.90;;;;;;4969052;28;20085;-87
2023/01/12 12:19:11;;;;;;;8.38;6.35;;;15.00;99.90;;;;;;4954600;29;20074;-87
2023/01/12 12:21:55;;;;;;;11.50;8.02;;;15.00;99.90;;;;;;4953731;28;20580;-87
2023/01/12 12:24:39;;;;;;;13.57;7.72;;;15.00;99.90;;;;;;4953438;29;20051;-87
2023/01/12 12:27:18;;;;;;;13.48;8.15;;;15.00;99.90;;;;;;4954328;29;20110;-87
2023/01/12 12:30:01;;;;;;;15.85;10.23;;;14.90;99.90;;;;;;4929511;29;20112;-87
2023/01/12 12:32:58;;;;;;;12.80;8.38;;;14.90;99.90;;;;;;4934716;29;20525;-87
2023/01/12 12:35:30;;;;;;;12.32;8.23;;;14.50;99.90;;;;;;4934882;29;20039;-87
2023/01/12 12:38:01;;;;;;;15.18;8.18;;;14.70;99.90;;;;;;4973005;28;20398;-86
2023/01/12 12:47:00;;;;;;;12.23;8.23;;;14.30;99.90;;;;;;4989197;28;20124;-87
2023/01/12 12:49:31;;;;;;;14.07;8.60;;;14.00;99.90;;;;;;4994679;28;20031;-87
2023/01/12 12:51:59;;;;;;;14.63;8.25;;;14.00;99.90;;;;;;5004826;28;20054;-87
2023/01/12 12:54:26;;;;;;;13.27;10.38;;;14.20;99.90;;;;;;4999981;28;20048;-86
2023/01/12 12:56:52;;;;;;;15.90;7.93;;;14.60;99.90;;;;;;5012488;28;20062;-86
2023/01/12 12:59:32;;;;;;;13.35;8.48;;;15.10;99.90;;;;;;4997083;28;20558;-86
2023/01/12 13:02:00;;;;;;;13.68;9.00;;;14.90;99.90;;;;;;4992440;28;20030;-87
2023/01/12 13:04:56;;;;;;;13.07;8.05;;;14.30;99.90;;;;;;4992219;28;20081;-86
2023/01/12 13:07:22;;;;;;;10.75;8.38;;;14.20;99.90;;;;;;4991344;28;20080;-87
2023/01/12 13:09:48;;;;;;;12.98;7.90;;;13.90;99.90;;;;;;4992913;28;20119;-87
2023/01/12 13:12:20;;;;;;;10.25;7.65;;;13.90;99.90;;;;;;5011040;28;20026;-86
2023/01/12 13:15:22;;;;;;;14.60;8.25;;;14.00;99.90;;;;;;5011908;28;20037;-87
2023/01/12 13:17:49;;;;;;;13.18;8.82;;;13.70;99.90;;;;;;5011672;28;20030;-86
2023/01/12 13:20:14;;;;;;;11.35;8.35;;;13.50;99.90;;;;;;5040141;28;20124;-86
2023/01/12 13:22:48;;;;;;;11.70;8.18;;;13.50;99.90;;;;;;5053191;28;20100;-86
2023/01/12 13:25:19;;;;;;;14.27;8.90;;;13.40;99.90;;;;;;5053160;28;20068;-86
2023/01/12 13:27:59;;;;;;;15.73;8.40;;;12.90;99.90;;;;;;5053933;28;20040;-86